This is the latest recevied weather packets stored in our database for station/object E22ZMG-1. If no packets are shown the sender has not sent any weather packets the latest 10 day(s).
| Time | Temp. | Humidity | Pressure | Rain* | Wind** | Luminosity | Snow |
|---|---|---|---|---|---|---|---|
| 1777933958 | 28.89° C | 68% | 976 hPa | - | - | 0 W/m² | - |
| 1777933332 | 29.44° C | 67% | 976 hPa | - | - | 0 W/m² | - |
| 1777932707 | 30° C | 66% | 976 hPa | - | - | 0 W/m² | - |
| 1777932082 | 30.56° C | 64% | 976 hPa | - | - | 0 W/m² | - |
| 1777931457 | 31.11° C | 62% | 976 hPa | - | - | 0 W/m² | - |
| 1777930833 | 31.11° C | 61% | 976 hPa | - | - | 0 W/m² | - |
| 1777930208 | 31.11° C | 61% | 976 hPa | - | - | 0 W/m² | - |
| 1777929583 | 31.67° C | 60% | 976 hPa | - | - | 0 W/m² | - |
| 1777928958 | 31.67° C | 59% | 976 hPa | - | - | 0 W/m² | - |
| 1777928332 | 32.22° C | 59% | 976 hPa | - | - | 0 W/m² | - |
| 1777927708 | 32.22° C | 59% | 976 hPa | - | - | 0 W/m² | - |
| 1777927083 | 31.67° C | 59% | 976 hPa | - | - | 0 W/m² | - |
| 1777926458 | 31.67° C | 59% | 976 hPa | - | - | 0 W/m² | - |
| 1777925833 | 31.11° C | 61% | 976 hPa | - | - | 0 W/m² | - |
| 1777925206 | 32.22° C | 59% | 976 hPa | - | - | 0 W/m² | - |
| 1777924581 | 31.67° C | 60% | 976 hPa | - | - | 0 W/m² | - |
| 1777923951 | 32.22° C | 59% | 977 hPa | - | - | 0 W/m² | - |
| 1777923324 | 33.33° C | 56% | 977 hPa | - | - | 0 W/m² | - |
| 1777922590 | 33.33° C | 55% | 977 hPa | - | - | 0 W/m² | - |
| 1777921965 | 32.78° C | 54% | 977 hPa | - | - | 0 W/m² | - |
| 1777921340 | 32.78° C | 54% | 977 hPa | - | - | 0 W/m² | - |
| 1777920714 | 32.78° C | 55% | 977 hPa | - | - | 0 W/m² | - |
| 1777920089 | 32.22° C | 56% | 977 hPa | - | - | 0 W/m² | - |
| 1777919464 | 33.33° C | 54% | 977 hPa | - | - | 0 W/m² | - |
| 1777918839 | 32.22° C | 56% | 977 hPa | - | - | 0 W/m² | - |
* Rain since midnight (hover to see other rain measurements)
** Current wind speed in m/s (hover to see current wind gust speed)